Time;durP1;ratioP1;P1;durP2;ratioP2;P2;SDS_P1;SDS_P2;PMS_P1;PMS_P2;Temp;Humidity;BMP_temperature;BMP_pressure;BME280_temperature;BME280_humidity;BME280_pressure;Samples;Min_cycle;Max_cycle;Signal;HPM_P1;HPM_P2
2022/08/13 00:01:46;;;;;;;6.30;2.30;;;23.20;1.00;;;;;;5081352;28;20826;-71
2022/08/13 00:04:14;;;;;;;4.93;2.47;;;23.20;1.00;;;;;;5100983;28;20497;-71
2022/08/13 00:09:09;;;;;;;4.77;2.50;;;23.10;1.00;;;;;;5084982;28;20976;-71
2022/08/13 00:14:23;;;;;;;3.10;2.60;;;23.10;1.00;;;;;;5085285;28;20448;-72
2022/08/13 00:16:50;;;;;;;2.90;2.23;;;23.10;1.00;;;;;;5088069;28;20762;-72
2022/08/13 00:19:16;;;;;;;3.57;2.40;;;23.10;1.00;;;;;;5086537;28;20455;-72
2022/08/13 00:21:41;;;;;;;3.43;2.53;;;23.10;1.00;;;;;;5083748;28;20454;-72
2022/08/13 00:24:07;;;;;;;3.30;2.60;;;23.00;1.00;;;;;;5088696;28;20418;-72
2022/08/13 00:26:33;;;;;;;10.93;2.63;;;23.00;1.00;;;;;;5086756;28;20187;-72
2022/08/13 00:29:02;;;;;;;2.73;2.33;;;23.00;1.00;;;;;;5092499;28;20686;-72
2022/08/13 00:31:28;;;;;;;10.80;2.80;;;22.90;1.00;;;;;;5086269;28;20183;-71
2022/08/13 00:33:57;;;;;;;6.20;2.33;;;22.90;1.00;;;;;;5100123;28;20463;-72
2022/08/13 00:36:23;;;;;;;3.40;2.60;;;22.90;1.00;;;;;;5099342;28;20584;-72
2022/08/13 00:38:52;;;;;;;4.97;2.43;;;22.90;1.00;;;;;;5089070;28;20428;-72
2022/08/13 00:44:04;;;;;;;17.40;2.57;;;22.90;1.00;;;;;;5093923;28;20410;-72
2022/08/13 00:46:31;;;;;;;3.73;2.30;;;23.00;1.00;;;;;;5090825;28;20925;-72
2022/08/13 00:48:57;;;;;;;4.10;2.67;;;23.40;1.00;;;;;;5083856;28;21080;-71
2022/08/13 00:51:26;;;;;;;3.27;2.27;;;22.90;1.00;;;;;;5088658;28;20482;-72
2022/08/13 00:53:54;;;;;;;11.50;2.90;;;22.90;1.00;;;;;;5082984;28;20267;-71
2022/08/13 00:56:22;;;;;;;3.30;2.50;;;22.80;1.00;;;;;;5084092;28;20432;-72
2022/08/13 00:58:49;;;;;;;4.60;2.57;;;22.80;1.00;;;;;;5095279;28;20417;-71
2022/08/13 01:01:15;;;;;;;3.93;2.57;;;22.80;1.00;;;;;;5096700;28;20807;-71
2022/08/13 01:03:41;;;;;;;3.77;2.77;;;22.70;1.00;;;;;;5101911;28;20452;-72
2022/08/13 01:06:08;;;;;;;4.00;2.53;;;22.70;1.00;;;;;;5088578;28;20175;-71
2022/08/13 01:08:40;;;;;;;5.77;2.43;;;22.80;1.00;;;;;;5092486;28;20405;-71
2022/08/13 01:11:11;;;;;;;6.07;2.70;;;22.70;1.00;;;;;;5088766;28;20441;-71
2022/08/13 01:13:38;;;;;;;3.93;2.70;;;22.70;1.00;;;;;;5092429;28;20444;-72
2022/08/13 01:16:07;;;;;;;3.40;2.33;;;22.60;1.00;;;;;;5087326;28;20433;-72
2022/08/13 01:18:36;;;;;;;3.70;2.70;;;22.60;1.00;;;;;;5093074;28;20409;-71
2022/08/13 01:21:13;;;;;;;6.23;2.40;;;22.50;1.00;;;;;;5075070;28;20906;-72
2022/08/13 01:23:41;;;;;;;6.60;3.00;;;22.50;1.00;;;;;;5098218;28;20440;-71
2022/08/13 01:26:07;;;;;;;6.50;2.77;;;22.40;1.00;;;;;;5089576;28;20478;-72
2022/08/13 01:28:33;;;;;;;4.70;2.40;;;22.40;1.00;;;;;;5089206;28;20801;-71
2022/08/13 01:31:06;;;;;;;2.70;2.17;;;22.40;1.00;;;;;;5090518;28;20635;-71
2022/08/13 01:33:35;;;;;;;4.07;2.87;;;23.10;1.00;;;;;;5083021;28;20688;-72
2022/08/13 01:36:07;;;;;;;4.30;2.33;;;22.30;1.00;;;;;;5084317;28;20414;-71
2022/08/13 01:38:34;;;;;;;3.80;2.73;;;22.30;1.00;;;;;;5089229;28;21797;-71
2022/08/13 01:41:02;;;;;;;3.63;2.40;;;22.40;1.00;;;;;;5083187;28;20551;-72
2022/08/13 01:43:30;;;;;;;6.20;2.60;;;22.40;1.00;;;;;;5088996;28;20815;-71
2022/08/13 01:45:59;;;;;;;3.37;2.37;;;22.40;1.00;;;;;;5090067;28;20405;-71
2022/08/13 01:51:23;;;;;;;4.30;2.50;;;22.40;1.00;;;;;;5085167;28;20431;-71
2022/08/13 01:53:51;;;;;;;2.80;2.40;;;22.30;1.00;;;;;;5086293;28;20456;-72
2022/08/13 01:56:21;;;;;;;3.57;2.80;;;22.30;1.00;;;;;;5088346;28;20931;-72
2022/08/13 01:58:48;;;;;;;8.03;2.60;;;22.30;1.00;;;;;;5087215;28;20513;-71
2022/08/13 02:01:14;;;;;;;4.87;3.00;;;22.20;1.00;;;;;;5089651;28;20405;-71
2022/08/13 02:03:46;;;;;;;3.93;3.00;;;22.20;1.00;;;;;;5095990;28;20450;-71
2022/08/13 02:06:12;;;;;;;4.87;2.90;;;22.20;1.00;;;;;;5096336;28;20186;-71
2022/08/13 02:08:40;;;;;;;4.17;3.27;;;22.20;1.00;;;;;;5088461;28;20406;-72
2022/08/13 02:11:06;;;;;;;3.17;2.63;;;22.30;1.00;;;;;;5094737;28;20171;-71
2022/08/13 02:13:32;;;;;;;3.83;2.90;;;22.20;1.00;;;;;;5087439;28;20855;-71
2022/08/13 02:15:58;;;;;;;3.20;2.30;;;22.20;1.00;;;;;;5090276;28;20795;-71
2022/08/13 02:18:26;;;;;;;3.33;2.33;;;22.10;1.00;;;;;;5087401;28;20432;-71
2022/08/13 02:20:57;;;;;;;3.27;2.50;;;22.00;1.00;;;;;;5088312;28;20210;-72
2022/08/13 02:23:27;;;;;;;5.40;2.60;;;22.00;1.00;;;;;;5090853;28;20457;-71
2022/08/13 02:25:53;;;;;;;4.60;2.60;;;21.90;1.00;;;;;;5090791;28;20508;-71
2022/08/13 02:28:20;;;;;;;3.00;2.23;;;21.80;1.00;;;;;;5084104;28;20485;-71
2022/08/13 02:30:48;;;;;;;4.37;2.40;;;21.70;1.00;;;;;;5100051;28;20513;-71
2022/08/13 02:33:14;;;;;;;3.23;2.43;;;21.60;1.00;;;;;;5090323;28;20440;-71
2022/08/13 02:35:41;;;;;;;4.57;2.50;;;21.50;1.00;;;;;;5097197;28;20430;-71
2022/08/13 02:38:11;;;;;;;3.30;2.67;;;21.50;1.00;;;;;;5088298;28;20421;-71
2022/08/13 02:43:26;;;;;;;3.90;2.87;;;21.30;1.00;;;;;;5087837;28;20657;-71
2022/08/13 02:45:53;;;;;;;3.30;2.60;;;21.20;1.00;;;;;;5095250;28;21019;-71
2022/08/13 02:48:20;;;;;;;4.17;3.00;;;21.10;1.00;;;;;;5098719;28;20566;-71
2022/08/13 02:50:45;;;;;;;3.87;2.70;;;21.10;1.00;;;;;;5075826;28;20437;-71
2022/08/13 02:53:13;;;;;;;6.00;2.47;;;21.10;1.00;;;;;;5089749;28;20460;-71
2022/08/13 02:55:41;;;;;;;3.80;2.60;;;21.10;1.00;;;;;;5088614;28;20180;-71
2022/08/13 02:58:07;;;;;;;3.60;2.60;;;21.10;1.00;;;;;;5101385;28;20392;-71
2022/08/13 03:00:34;;;;;;;3.50;2.53;;;21.10;1.00;;;;;;5092287;28;20415;-71
2022/08/13 03:03:00;;;;;;;6.93;2.70;;;21.10;1.00;;;;;;5089782;28;21025;-71
2022/08/13 03:05:30;;;;;;;3.63;2.57;;;21.10;1.00;;;;;;5104132;28;20411;-71
2022/08/13 03:07:56;;;;;;;3.20;2.60;;;21.00;1.00;;;;;;5091976;28;20491;-71
2022/08/13 03:10:25;;;;;;;3.67;2.70;;;21.00;1.00;;;;;;5091309;28;20402;-71
2022/08/13 03:12:58;;;;;;;4.67;2.60;;;20.90;1.00;;;;;;5089134;28;20437;-71
2022/08/13 03:15:25;;;;;;;3.20;2.67;;;20.90;1.00;;;;;;5085909;28;20432;-71
2022/08/13 03:17:50;;;;;;;3.63;2.47;;;20.90;1.00;;;;;;5099477;28;20480;-70
2022/08/13 03:20:16;;;;;;;3.50;2.70;;;20.90;1.00;;;;;;5077696;28;20417;-71
2022/08/13 03:22:48;;;;;;;3.10;2.53;;;20.90;1.00;;;;;;5087393;28;20211;-70
2022/08/13 03:25:15;;;;;;;5.40;2.50;;;20.80;1.00;;;;;;5097652;28;20175;-72
2022/08/13 03:27:40;;;;;;;3.43;2.57;;;20.80;1.00;;;;;;5104363;28;20818;-71
2022/08/13 03:30:07;;;;;;;4.00;2.40;;;21.20;1.00;;;;;;5082192;28;20437;-72
2022/08/13 03:32:40;;;;;;;4.83;2.60;;;20.60;1.00;;;;;;5088358;28;20260;-71
2022/08/13 03:35:08;;;;;;;3.87;2.97;;;20.50;1.00;;;;;;5080800;28;20478;-71
2022/08/13 03:37:35;;;;;;;6.40;2.70;;;20.50;1.00;;;;;;5089580;28;20512;-71
2022/08/13 03:40:01;;;;;;;4.17;2.73;;;20.30;1.00;;;;;;5082858;28;20426;-72
2022/08/13 03:42:27;;;;;;;4.40;2.63;;;20.20;1.00;;;;;;5096196;28;21003;-72
2022/08/13 03:44:54;;;;;;;3.90;2.53;;;20.10;1.00;;;;;;5084838;28;20425;-71
2022/08/13 03:47:19;;;;;;;4.50;3.10;;;19.90;1.00;;;;;;5090563;28;20620;-71
2022/08/13 03:49:46;;;;;;;8.50;2.80;;;19.80;1.00;;;;;;5100050;28;20424;-71
2022/08/13 03:52:13;;;;;;;5.03;3.07;;;19.70;1.00;;;;;;5091371;27;20539;-72
2022/08/13 03:54:39;;;;;;;4.90;2.93;;;19.60;1.00;;;;;;5089630;28;20466;-72
2022/08/13 03:57:04;;;;;;;5.10;2.90;;;19.50;1.00;;;;;;5086818;28;20433;-72
2022/08/13 03:59:31;;;;;;;4.53;3.07;;;19.50;1.00;;;;;;5079424;28;20550;-72
2022/08/13 04:02:01;;;;;;;5.83;3.03;;;19.40;1.00;;;;;;5079193;28;20275;-72
2022/08/13 04:04:27;;;;;;;5.77;2.77;;;19.30;1.00;;;;;;5097478;28;20401;-72
2022/08/13 04:06:53;;;;;;;6.17;3.10;;;19.20;1.00;;;;;;5095981;28;20470;-72
2022/08/13 04:09:18;;;;;;;5.57;3.20;;;19.10;1.00;;;;;;5101411;28;20445;-71
2022/08/13 04:11:46;;;;;;;6.47;3.10;;;19.10;1.00;;;;;;5087911;28;20210;-72
2022/08/13 04:14:12;;;;;;;4.10;3.00;;;19.10;1.00;;;;;;5089601;28;20167;-72
2022/08/13 04:16:39;;;;;;;3.70;3.07;;;19.00;1.00;;;;;;5085570;28;20801;-72
2022/08/13 04:19:05;;;;;;;3.80;3.17;;;19.10;1.00;;;;;;5089658;28;20224;-72
2022/08/13 04:21:32;;;;;;;3.83;3.20;;;19.10;1.00;;;;;;5084161;28;20532;-72
2022/08/13 04:23:58;;;;;;;4.07;2.90;;;18.90;1.00;;;;;;5089613;28;20175;-72
2022/08/13 04:26:25;;;;;;;5.03;3.10;;;18.80;1.00;;;;;;5085473;28;20472;-72
2022/08/13 04:28:53;;;;;;;8.30;3.30;;;18.60;1.00;;;;;;5094045;28;20168;-72
2022/08/13 04:31:19;;;;;;;3.60;3.00;;;18.50;1.00;;;;;;5090166;28;20433;-72
2022/08/13 04:33:45;;;;;;;3.10;2.80;;;18.50;1.00;;;;;;5102638;28;20541;-72
2022/08/13 04:36:11;;;;;;;4.10;3.40;;;18.50;1.00;;;;;;5098830;28;20206;-72
2022/08/13 04:38:38;;;;;;;3.20;2.70;;;18.40;1.00;;;;;;5086689;28;20848;-72
2022/08/13 04:41:03;;;;;;;3.80;2.50;;;18.40;1.00;;;;;;5089484;28;20955;-72
2022/08/13 04:43:30;;;;;;;10.90;3.13;;;18.40;1.00;;;;;;5087493;28;20526;-72
2022/08/13 04:45:59;;;;;;;3.23;2.93;;;18.40;1.00;;;;;;5092002;28;20164;-71
2022/08/13 04:48:32;;;;;;;3.50;3.20;;;18.40;1.00;;;;;;5089939;28;20433;-72
2022/08/13 04:50:58;;;;;;;4.97;3.00;;;18.40;1.00;;;;;;5094337;28;20488;-72
2022/08/13 04:53:33;;;;;;;3.70;2.80;;;18.40;1.00;;;;;;5088815;28;21009;-72
2022/08/13 04:55:59;;;;;;;3.10;2.80;;;18.30;1.00;;;;;;5090720;28;20179;-72
2022/08/13 04:58:32;;;;;;;3.33;3.03;;;18.30;1.00;;;;;;5093716;28;20414;-72
2022/08/13 05:01:09;;;;;;;4.17;2.90;;;18.50;1.00;;;;;;5096595;28;20839;-72
2022/08/13 05:03:38;;;;;;;3.67;2.87;;;18.50;1.00;;;;;;5091304;28;20459;-72
2022/08/13 05:06:11;;;;;;;4.70;3.10;;;18.60;1.00;;;;;;5105258;28;20947;-71
2022/08/13 05:08:39;;;;;;;6.60;3.37;;;18.60;1.00;;;;;;5093043;28;20413;-71
2022/08/13 05:11:06;;;;;;;4.70;2.93;;;18.70;1.00;;;;;;5090178;28;20504;-71
2022/08/13 05:13:35;;;;;;;3.20;2.90;;;18.80;1.00;;;;;;5100467;28;20441;-72
2022/08/13 05:16:03;;;;;;;4.37;2.90;;;18.90;1.00;;;;;;5078797;28;20526;-72
2022/08/13 05:18:34;;;;;;;4.70;3.20;;;18.90;1.00;;;;;;5088821;28;20475;-71
2022/08/13 05:21:03;;;;;;;3.70;2.90;;;18.90;1.00;;;;;;5090302;28;20433;-72
2022/08/13 05:23:32;;;;;;;5.83;3.07;;;19.00;1.00;;;;;;5088597;28;21070;-71
2022/08/13 05:25:59;;;;;;;3.70;3.27;;;19.10;1.00;;;;;;5087445;28;20799;-72
2022/08/13 05:28:25;;;;;;;5.10;3.40;;;19.20;1.00;;;;;;5088070;28;20439;-71
2022/08/13 05:30:51;;;;;;;3.50;3.20;;;19.20;1.00;;;;;;5088804;28;20430;-72
2022/08/13 05:33:26;;;;;;;4.50;2.97;;;19.30;1.00;;;;;;5100329;28;20966;-71
2022/08/13 05:35:55;;;;;;;4.77;3.10;;;19.40;1.00;;;;;;5105038;28;20186;-71
2022/08/13 05:38:22;;;;;;;4.47;3.10;;;19.40;1.00;;;;;;5085058;28;20420;-72
2022/08/13 05:40:56;;;;;;;4.53;3.40;;;19.50;1.00;;;;;;5100132;28;20530;-72
2022/08/13 05:43:26;;;;;;;5.47;3.40;;;19.60;1.00;;;;;;5092295;28;20982;-71
2022/08/13 05:45:58;;;;;;;5.37;2.90;;;19.70;1.00;;;;;;5088022;28;20560;-71
2022/08/13 05:48:33;;;;;;;3.80;3.20;;;19.80;1.00;;;;;;5087608;28;20449;-71
2022/08/13 05:51:00;;;;;;;4.70;3.37;;;19.90;1.00;;;;;;5087357;28;20440;-71
2022/08/13 05:53:27;;;;;;;4.10;3.20;;;20.00;1.00;;;;;;5086964;28;20429;-72
2022/08/13 05:55:54;;;;;;;5.33;3.30;;;20.10;1.00;;;;;;5088083;28;20533;-71
2022/08/13 05:58:21;;;;;;;7.70;3.67;;;20.10;1.00;;;;;;5094937;28;20434;-72
2022/08/13 06:03:31;;;;;;;6.80;3.10;;;20.40;1.00;;;;;;5092267;28;20606;-71
2022/08/13 06:06:09;;;;;;;6.17;3.43;;;20.50;1.00;;;;;;5096509;28;20970;-72
2022/08/13 06:08:42;;;;;;;4.90;3.37;;;20.60;1.00;;;;;;5088021;28;20659;-72
2022/08/13 06:11:11;;;;;;;3.87;3.30;;;20.60;1.00;;;;;;5088921;28;20456;-72
2022/08/13 06:13:38;;;;;;;4.17;3.40;;;20.80;1.00;;;;;;5092508;28;20425;-72
2022/08/13 06:16:10;;;;;;;5.10;3.67;;;20.80;1.00;;;;;;5088144;28;20821;-71
2022/08/13 06:18:44;;;;;;;6.07;3.50;;;21.00;1.00;;;;;;5091117;28;20416;-72
2022/08/13 06:21:12;;;;;;;8.33;3.60;;;21.10;1.00;;;;;;5083085;28;20440;-72
2022/08/13 06:23:39;;;;;;;9.20;3.77;;;21.30;1.00;;;;;;5082527;28;20553;-72
2022/08/13 06:26:06;;;;;;;6.37;3.20;;;21.50;1.00;;;;;;5087874;28;20429;-72
2022/08/13 06:28:33;;;;;;;5.60;3.40;;;21.70;1.00;;;;;;5091627;28;20495;-72
2022/08/13 06:31:04;;;;;;;6.97;3.80;;;21.90;1.00;;;;;;5096123;28;20428;-72
2022/08/13 06:33:31;;;;;;;7.10;3.27;;;22.10;1.00;;;;;;5103582;28;20432;-72
2022/08/13 06:36:04;;;;;;;5.40;4.07;;;22.30;1.00;;;;;;5087312;28;20433;-72
2022/08/13 06:38:36;;;;;;;4.87;3.60;;;22.40;1.00;;;;;;5089712;28;20508;-72
2022/08/13 06:41:07;;;;;;;5.23;3.80;;;22.70;1.00;;;;;;5082301;28;20429;-72
2022/08/13 06:43:41;;;;;;;6.80;3.77;;;22.90;1.00;;;;;;5090853;28;20815;-72
2022/08/13 06:46:09;;;;;;;4.40;3.63;;;22.90;1.00;;;;;;5076786;28;20441;-72
2022/08/13 06:48:35;;;;;;;6.20;3.70;;;23.00;1.00;;;;;;5086416;28;20947;-72
2022/08/13 06:51:04;;;;;;;7.67;3.60;;;23.10;1.00;;;;;;5093443;28;20415;-72
2022/08/13 06:53:32;;;;;;;6.27;3.87;;;23.30;1.00;;;;;;5109298;28;20440;-71
2022/08/13 06:55:58;;;;;;;4.77;3.80;;;23.50;1.00;;;;;;5101191;28;20436;-72
2022/08/13 06:58:28;;;;;;;6.53;3.63;;;23.70;1.00;;;;;;5088513;28;20491;-72
2022/08/13 07:00:55;;;;;;;4.87;3.50;;;23.90;1.00;;;;;;5088462;28;20171;-72
2022/08/13 07:03:25;;;;;;;8.35;3.25;;;24.20;1.00;;;;;;5087937;28;20431;-73
2022/08/13 07:05:51;;;;;;;4.90;3.37;;;24.50;1.00;;;;;;5071453;28;20180;-72
2022/08/13 07:08:17;;;;;;;4.63;3.37;;;24.80;1.00;;;;;;5086265;28;20460;-73
2022/08/13 07:10:51;;;;;;;4.73;3.20;;;25.00;1.00;;;;;;5078382;28;20666;-72
2022/08/13 07:13:17;;;;;;;4.40;3.60;;;25.20;1.00;;;;;;5086784;28;20445;-72
2022/08/13 07:15:45;;;;;;;5.43;3.67;;;26.20;1.00;;;;;;5081827;28;20450;-72
2022/08/13 07:18:11;;;;;;;7.13;3.40;;;25.70;1.00;;;;;;5092599;28;20419;-72
2022/08/13 07:20:37;;;;;;;5.93;3.40;;;26.10;1.00;;;;;;5092108;28;20434;-72
2022/08/13 07:23:03;;;;;;;5.93;3.43;;;26.10;1.00;;;;;;5090263;28;20456;-72
2022/08/13 07:25:30;;;;;;;4.07;3.43;;;26.30;1.00;;;;;;5092551;28;20430;-73
2022/08/13 07:27:57;;;;;;;3.63;2.90;;;26.50;1.00;;;;;;5089916;28;20210;-72
2022/08/13 07:30:23;;;;;;;4.23;3.60;;;26.70;1.00;;;;;;5085085;28;20229;-72
2022/08/13 07:32:51;;;;;;;6.30;3.30;;;26.90;1.00;;;;;;5084755;28;20199;-73
2022/08/13 07:35:17;;;;;;;6.22;3.20;;;27.10;1.00;;;;;;5096235;28;20440;-72
2022/08/13 07:37:43;;;;;;;4.03;3.47;;;27.30;1.00;;;;;;5090117;28;20514;-72
2022/08/13 07:40:09;;;;;;;5.47;3.47;;;27.30;1.00;;;;;;5084743;28;20178;-73
2022/08/13 07:42:41;;;;;;;4.20;3.13;;;27.30;1.00;;;;;;5085511;28;20206;-75
2022/08/13 07:45:08;;;;;;;3.60;3.10;;;27.20;1.00;;;;;;5084275;28;20180;-73
2022/08/13 07:47:35;;;;;;;3.50;3.07;;;27.30;1.00;;;;;;5086295;28;20175;-73
2022/08/13 07:50:05;;;;;;;6.90;3.10;;;27.40;1.00;;;;;;5096817;28;20227;-73
2022/08/13 07:52:31;;;;;;;7.80;3.10;;;27.60;1.00;;;;;;5078503;28;20196;-74
2022/08/13 07:55:00;;;;;;;4.17;3.03;;;27.70;1.00;;;;;;5095034;28;20178;-73
2022/08/13 07:57:29;;;;;;;7.00;3.50;;;27.80;1.00;;;;;;5095040;28;20178;-73
2022/08/13 07:59:55;;;;;;;3.50;3.10;;;27.90;1.00;;;;;;5099496;28;20715;-73
2022/08/13 08:02:25;;;;;;;3.90;3.20;;;27.90;1.00;;;;;;5083512;28;20206;-72
2022/08/13 08:04:56;;;;;;;12.30;3.47;;;28.00;1.00;;;;;;5076378;28;20179;-72
2022/08/13 08:07:24;;;;;;;3.57;3.10;;;28.10;1.00;;;;;;5078477;28;20168;-73
2022/08/13 08:09:52;;;;;;;4.93;3.07;;;28.30;1.00;;;;;;5074930;28;20172;-73
2022/08/13 08:12:32;;;;;;;5.70;3.37;;;28.40;1.00;;;;;;5087342;28;20194;-74
2022/08/13 08:14:59;;;;;;;5.20;3.10;;;28.20;1.00;;;;;;5079711;28;20182;-73
2022/08/13 08:17:26;;;;;;;4.43;3.20;;;28.40;1.00;;;;;;5075027;28;20270;-73
2022/08/13 08:19:53;;;;;;;4.67;3.27;;;28.40;1.00;;;;;;5096603;28;20251;-73
2022/08/13 08:22:20;;;;;;;24.73;4.00;;;28.20;1.00;;;;;;5076724;28;20365;-73
2022/08/13 08:24:49;;;;;;;15.67;3.43;;;28.30;1.00;;;;;;5086731;28;20175;-73
2022/08/13 08:27:16;;;;;;;9.40;3.23;;;28.40;1.00;;;;;;5087477;28;20197;-73
2022/08/13 08:29:44;;;;;;;3.90;3.07;;;28.50;1.00;;;;;;5087605;28;20649;-73
2022/08/13 08:32:11;;;;;;;8.00;3.20;;;28.70;1.00;;;;;;5084193;28;20285;-73
2022/08/13 08:34:46;;;;;;;4.17;3.60;;;28.60;1.00;;;;;;5098242;28;20617;-73
2022/08/13 08:42:56;;;;;;;4.30;3.30;;;29.20;1.00;;;;;;5080711;28;21146;-73
2022/08/13 08:45:24;;;;;;;5.70;3.13;;;29.50;1.00;;;;;;5088428;28;20186;-73
2022/08/13 08:47:52;;;;;;;5.47;3.28;;;29.60;1.00;;;;;;5080303;28;20545;-73
2022/08/13 08:50:24;;;;;;;4.57;3.22;;;29.60;1.00;;;;;;5089468;28;20172;-73
2022/08/13 08:55:38;;;;;;;4.70;3.20;;;29.90;1.00;;;;;;5086957;28;20266;-75
2022/08/13 08:58:05;;;;;;;4.20;3.20;;;29.80;1.00;;;;;;5079874;28;20187;-77
2022/08/13 09:00:33;;;;;;;4.07;3.35;;;29.80;1.00;;;;;;5080048;28;20523;-75
2022/08/13 09:02:59;;;;;;;15.73;3.28;;;29.90;1.00;;;;;;5084337;28;20202;-75
2022/08/13 09:05:25;;;;;;;11.88;3.22;;;29.90;1.00;;;;;;5095310;28;20175;-75
2022/08/13 09:07:52;;;;;;;3.78;2.85;;;30.10;1.00;;;;;;5080729;28;20258;-75
2022/08/13 09:10:19;;;;;;;3.88;2.92;;;30.30;1.00;;;;;;5088877;28;20175;-73
2022/08/13 09:12:46;;;;;;;3.90;3.15;;;30.50;1.00;;;;;;5087254;28;20301;-73
2022/08/13 09:15:14;;;;;;;5.70;2.90;;;30.80;1.00;;;;;;5088370;28;20594;-74
2022/08/13 09:17:40;;;;;;;3.40;2.90;;;30.90;1.00;;;;;;5087562;28;20190;-73
2022/08/13 09:20:13;;;;;;;3.50;3.00;;;31.00;1.00;;;;;;5100101;28;20225;-73
2022/08/13 09:22:41;;;;;;;6.30;3.10;;;31.00;1.00;;;;;;5089851;28;20625;-73
2022/08/13 09:25:08;;;;;;;5.88;3.17;;;31.20;1.00;;;;;;5100896;28;20171;-73
2022/08/13 09:27:35;;;;;;;4.75;3.05;;;31.30;1.00;;;;;;5084756;28;20194;-73
2022/08/13 09:30:04;;;;;;;26.92;5.32;;;31.60;1.00;;;;;;5087219;28;20183;-73
2022/08/13 09:32:35;;;;;;;3.65;2.95;;;31.60;1.00;;;;;;5091466;28;20205;-73
2022/08/13 09:35:03;;;;;;;5.60;2.85;;;31.80;1.00;;;;;;5096185;28;20469;-73
2022/08/13 09:37:30;;;;;;;4.95;3.20;;;32.10;1.00;;;;;;5096057;28;20650;-73
2022/08/13 09:40:06;;;;;;;3.65;2.80;;;31.90;1.00;;;;;;5090918;28;20175;-72
2022/08/13 09:42:46;;;;;;;3.53;2.80;;;31.70;1.00;;;;;;5090950;28;20255;-72
2022/08/13 09:45:11;;;;;;;5.75;3.20;;;31.50;1.00;;;;;;5078445;28;20190;-72
2022/08/13 09:47:37;;;;;;;5.18;2.72;;;32.10;1.00;;;;;;5088857;28;20179;-74
2022/08/13 09:50:03;;;;;;;6.10;2.75;;;32.00;1.00;;;;;;5089102;28;20202;-75
2022/08/13 09:52:30;;;;;;;6.43;3.15;;;32.40;1.00;;;;;;5085829;28;20215;-74
2022/08/13 09:54:57;;;;;;;5.05;3.00;;;32.60;1.00;;;;;;5081787;28;20183;-74
2022/08/13 09:57:23;;;;;;;6.55;3.13;;;32.80;1.00;;;;;;5099051;28;20181;-75
2022/08/13 09:59:49;;;;;;;6.88;2.78;;;32.80;1.00;;;;;;5093177;28;20171;-75
2022/08/13 10:02:15;;;;;;;10.65;3.10;;;32.90;1.00;;;;;;5092323;28;20693;-75
2022/08/13 10:04:42;;;;;;;5.20;3.15;;;33.00;1.00;;;;;;5090413;28;20274;-75
2022/08/13 10:07:09;;;;;;;3.90;2.70;;;33.30;1.00;;;;;;5085488;28;20521;-74
2022/08/13 10:09:36;;;;;;;4.47;2.60;;;33.80;1.00;;;;;;5081506;28;20252;-75
2022/08/13 10:12:04;;;;;;;4.95;2.75;;;34.30;1.00;;;;;;5089429;28;20195;-76
2022/08/13 10:14:30;;;;;;;5.53;2.50;;;35.30;1.00;;;;;;5092943;28;20228;-76
2022/08/13 10:16:56;;;;;;;5.68;2.63;;;36.20;1.00;;;;;;5097268;28;20210;-75
2022/08/13 10:19:21;;;;;;;4.07;2.42;;;36.80;1.00;;;;;;5081819;28;20174;-76
2022/08/13 10:21:47;;;;;;;6.47;2.80;;;37.40;1.00;;;;;;5087516;28;20631;-76
2022/08/13 10:24:12;;;;;;;4.75;2.50;;;38.00;1.00;;;;;;5086877;28;20215;-76
2022/08/13 10:26:40;;;;;;;3.42;2.47;;;38.50;1.00;;;;;;5079215;28;20198;-76
2022/08/13 10:29:10;;;;;;;10.50;2.78;;;38.90;1.00;;;;;;5074155;28;20188;-76
2022/08/13 10:31:36;;;;;;;7.93;2.40;;;39.80;1.00;;;;;;5081619;28;20172;-73
2022/08/13 10:34:03;;;;;;;3.00;2.30;;;40.50;1.00;;;;;;5083870;28;20201;-74
2022/08/13 10:36:30;;;;;;;3.05;2.35;;;40.60;1.00;;;;;;5084848;28;20202;-74
2022/08/13 10:38:56;;;;;;;2.65;2.30;;;39.90;1.00;;;;;;5089130;28;20645;-74
2022/08/13 10:41:22;;;;;;;3.00;2.30;;;40.40;1.00;;;;;;5088109;28;20274;-74
2022/08/13 10:43:48;;;;;;;4.05;2.20;;;40.80;1.00;;;;;;5085880;28;20238;-73
2022/08/13 10:46:16;;;;;;;7.97;2.25;;;41.20;1.00;;;;;;5090740;28;20172;-74
2022/08/13 10:48:46;;;;;;;2.58;2.15;;;42.00;1.00;;;;;;5088078;28;20233;-74
2022/08/13 10:51:11;;;;;;;2.90;1.90;;;42.60;1.00;;;;;;5090731;28;20571;-73
2022/08/13 10:53:58;;;;;;;3.03;2.10;;;42.10;1.00;;;;;;5082818;28;20208;-74
2022/08/13 10:56:27;;;;;;;3.53;2.30;;;42.10;1.00;;;;;;5084159;28;20179;-74
2022/08/13 10:58:53;;;;;;;4.50;2.10;;;42.80;1.00;;;;;;5097446;28;20222;-74
2022/08/13 11:01:22;;;;;;;3.05;2.13;;;43.40;1.00;;;;;;5087766;28;20227;-74
2022/08/13 11:03:47;;;;;;;3.15;2.03;;;43.80;1.00;;;;;;5092787;28;20199;-74
2022/08/13 11:06:13;;;;;;;2.90;1.80;;;44.40;1.00;;;;;;5103860;28;20556;-75
2022/08/13 11:08:39;;;;;;;4.35;2.20;;;44.90;1.00;;;;;;5089213;28;20179;-73
2022/08/13 11:11:08;;;;;;;3.20;2.00;;;45.20;1.00;;;;;;5085860;28;20193;-74
2022/08/13 11:13:36;;;;;;;2.85;2.13;;;45.70;1.00;;;;;;5081017;28;20198;-74
2022/08/13 11:16:05;;;;;;;4.30;1.77;;;46.00;1.00;;;;;;5084133;28;20193;-74
2022/08/13 11:18:32;;;;;;;2.78;1.73;;;46.60;1.00;;;;;;5080658;28;20217;-75
2022/08/13 11:21:06;;;;;;;4.63;1.80;;;47.30;1.00;;;;;;5079820;28;20641;-74
2022/08/13 11:23:32;;;;;;;3.00;1.80;;;47.30;1.00;;;;;;5083339;28;20215;-74
2022/08/13 11:25:57;;;;;;;2.20;1.80;;;46.90;1.00;;;;;;5083852;28;20189;-74
2022/08/13 11:28:23;;;;;;;2.80;1.80;;;46.70;1.00;;;;;;5086220;28;20195;-74
2022/08/13 11:30:50;;;;;;;3.75;2.08;;;46.10;1.00;;;;;;5086473;28;20172;-73
2022/08/13 11:33:17;;;;;;;3.20;1.90;;;46.80;1.00;;;;;;5085081;28;20693;-74
2022/08/13 11:35:44;;;;;;;3.85;2.00;;;47.60;1.00;;;;;;5084256;28;20229;-73
2022/08/13 11:38:12;;;;;;;6.03;2.10;;;47.80;1.00;;;;;;5077856;28;20190;-74
2022/08/13 11:40:38;;;;;;;2.78;2.08;;;47.00;1.00;;;;;;5089746;28;20175;-74
2022/08/13 11:43:04;;;;;;;2.50;1.70;;;46.90;1.00;;;;;;5080161;28;20211;-73
2022/08/13 11:45:29;;;;;;;5.03;2.00;;;46.80;1.00;;;;;;5080060;28;20222;-75
2022/08/13 11:47:55;;;;;;;3.35;2.03;;;45.60;1.00;;;;;;5082493;28;20216;-74
2022/08/13 11:50:21;;;;;;;4.82;3.60;;;45.30;1.00;;;;;;5086997;28;20271;-74
2022/08/13 11:52:46;;;;;;;4.50;1.83;;;45.50;1.00;;;;;;5069187;28;20230;-74
2022/08/13 11:55:12;;;;;;;3.95;2.10;;;45.50;1.00;;;;;;5096503;28;20182;-74
2022/08/13 11:57:37;;;;;;;2.60;1.90;;;45.10;1.00;;;;;;5087728;28;20187;-74
2022/08/13 12:00:05;;;;;;;2.50;1.98;;;45.20;1.00;;;;;;5098436;28;20223;-74
2022/08/13 12:02:31;;;;;;;4.32;2.00;;;46.00;1.00;;;;;;5082795;28;20206;-74
2022/08/13 12:04:56;;;;;;;3.15;1.70;;;46.60;1.00;;;;;;5093404;28;20693;-74
2022/08/13 12:07:23;;;;;;;4.10;2.00;;;47.20;1.00;;;;;;5090134;28;20715;-74
2022/08/13 12:09:49;;;;;;;2.85;1.58;;;47.50;1.00;;;;;;5081316;28;20180;-74
2022/08/13 12:12:15;;;;;;;3.00;2.05;;;47.10;1.00;;;;;;5089082;28;20209;-74
2022/08/13 12:14:40;;;;;;;3.72;2.13;;;47.80;1.00;;;;;;5082832;28;20186;-74
2022/08/13 12:17:06;;;;;;;5.78;2.00;;;48.10;1.00;;;;;;5086795;28;20179;-74
2022/08/13 12:19:32;;;;;;;4.43;2.20;;;48.00;1.00;;;;;;5075905;28;20179;-74
2022/08/13 12:21:59;;;;;;;2.80;2.20;;;47.20;1.00;;;;;;5088638;28;20278;-74
2022/08/13 12:24:25;;;;;;;3.20;1.80;;;46.70;1.00;;;;;;5076504;28;20175;-73
2022/08/13 12:26:51;;;;;;;2.95;1.80;;;46.30;1.00;;;;;;5072192;28;20543;-74
2022/08/13 12:29:16;;;;;;;3.13;2.00;;;46.50;1.00;;;;;;5082332;28;20176;-74
2022/08/13 12:31:42;;;;;;;4.13;2.13;;;47.30;1.00;;;;;;5082412;28;20221;-74
2022/08/13 12:34:07;;;;;;;3.30;2.10;;;48.30;1.00;;;;;;5086904;28;20218;-74
2022/08/13 12:36:33;;;;;;;4.15;1.98;;;48.60;1.00;;;;;;5083002;28;20167;-75
2022/08/13 12:38:58;;;;;;;3.75;1.92;;;47.90;1.00;;;;;;5085900;28;20565;-74
2022/08/13 12:41:24;;;;;;;2.95;1.83;;;47.80;1.00;;;;;;5109114;28;20530;-74
2022/08/13 12:43:49;;;;;;;5.60;2.13;;;48.00;1.00;;;;;;5091090;28;20365;-75
2022/08/13 12:46:15;;;;;;;3.65;1.85;;;48.40;1.00;;;;;;5086139;28;20209;-74
2022/08/13 12:48:40;;;;;;;2.30;1.70;;;47.80;1.00;;;;;;5087996;28;20263;-74
2022/08/13 12:51:06;;;;;;;3.10;1.75;;;47.60;1.00;;;;;;5075532;28;20172;-74
2022/08/13 12:53:31;;;;;;;2.33;1.80;;;47.40;1.00;;;;;;5088866;28;20198;-74
2022/08/13 12:55:57;;;;;;;4.32;1.90;;;47.40;1.00;;;;;;5080908;28;20617;-74
2022/08/13 12:58:25;;;;;;;5.07;1.80;;;47.80;1.00;;;;;;5084993;28;20713;-74
2022/08/13 13:00:55;;;;;;;2.92;1.77;;;48.50;1.00;;;;;;5078199;28;20222;-74
2022/08/13 13:03:22;;;;;;;2.67;1.70;;;49.20;1.00;;;;;;5089130;28;20203;-74
2022/08/13 13:05:50;;;;;;;3.90;1.80;;;49.40;1.00;;;;;;5093283;28;20529;-74
2022/08/13 13:08:22;;;;;;;2.72;1.70;;;49.50;1.00;;;;;;5090614;28;20198;-74
2022/08/13 13:10:50;;;;;;;5.30;2.00;;;49.00;1.00;;;;;;5092694;28;20635;-74
2022/08/13 13:13:19;;;;;;;3.42;1.80;;;48.40;1.00;;;;;;5084243;28;20199;-74
2022/08/13 13:15:45;;;;;;;4.25;1.92;;;48.30;1.00;;;;;;5089005;28;20206;-74
2022/08/13 13:18:16;;;;;;;5.57;2.08;;;48.00;1.00;;;;;;5084900;28;20645;-74
2022/08/13 13:20:43;;;;;;;2.90;1.77;;;48.00;1.00;;;;;;5091501;28;20175;-74
2022/08/13 13:23:11;;;;;;;6.47;1.85;;;48.90;1.00;;;;;;5083948;28;20911;-74
2022/08/13 13:25:37;;;;;;;2.58;1.90;;;49.10;1.00;;;;;;5080289;28;20187;-74